sensor_id;sensor_type;location;lat;lon;timestamp;temperature;humidity
11838;DHT22;5978;51.020;6.764;2023-02-13T00:01:20;9.00;99.90
11838;DHT22;5978;51.020;6.764;2023-02-13T00:03:46;8.90;99.90
11838;DHT22;5978;51.020;6.764;2023-02-13T00:06:11;9.00;99.90
11838;DHT22;5978;51.020;6.764;2023-02-13T00:08:37;9.00;99.90
11838;DHT22;5978;51.020;6.764;2023-02-13T00:11:02;8.90;99.90
11838;DHT22;5978;51.020;6.764;2023-02-13T00:13:28;8.90;99.90
11838;DHT22;5978;51.020;6.764;2023-02-13T00:15:58;8.90;99.90
11838;DHT22;5978;51.020;6.764;2023-02-13T00:18:25;9.00;99.90
11838;DHT22;5978;51.020;6.764;2023-02-13T00:21:00;9.00;99.90
11838;DHT22;5978;51.020;6.764;2023-02-13T00:23:26;8.90;99.90
11838;DHT22;5978;51.020;6.764;2023-02-13T00:25:51;8.90;99.90
11838;DHT22;5978;51.020;6.764;2023-02-13T00:28:17;8.90;99.90
11838;DHT22;5978;51.020;6.764;2023-02-13T00:30:42;8.90;99.90
11838;DHT22;5978;51.020;6.764;2023-02-13T00:33:08;9.00;99.90
11838;DHT22;5978;51.020;6.764;2023-02-13T00:35:34;9.00;99.90
11838;DHT22;5978;51.020;6.764;2023-02-13T00:38:00;8.90;99.90
11838;DHT22;5978;51.020;6.764;2023-02-13T00:40:25;9.00;99.90
11838;DHT22;5978;51.020;6.764;2023-02-13T00:42:51;8.90;99.90
11838;DHT22;5978;51.020;6.764;2023-02-13T00:45:16;9.00;99.90
11838;DHT22;5978;51.020;6.764;2023-02-13T00:47:42;9.00;99.90
11838;DHT22;5978;51.020;6.764;2023-02-13T00:50:07;8.90;99.90
11838;DHT22;5978;51.020;6.764;2023-02-13T00:52:33;8.90;99.90
11838;DHT22;5978;51.020;6.764;2023-02-13T00:54:59;8.90;99.90
11838;DHT22;5978;51.020;6.764;2023-02-13T00:57:24;8.90;99.90
11838;DHT22;5978;51.020;6.764;2023-02-13T00:59:50;8.90;99.90
11838;DHT22;5978;51.020;6.764;2023-02-13T01:02:15;8.80;99.90
11838;DHT22;5978;51.020;6.764;2023-02-13T01:04:41;8.90;99.90
11838;DHT22;5978;51.020;6.764;2023-02-13T01:07:06;8.80;99.90
11838;DHT22;5978;51.020;6.764;2023-02-13T01:09:32;8.90;99.90
11838;DHT22;5978;51.020;6.764;2023-02-13T01:11:57;8.80;99.90
11838;DHT22;5978;51.020;6.764;2023-02-13T01:14:23;8.90;99.90
11838;DHT22;5978;51.020;6.764;2023-02-13T01:16:49;8.90;99.90
11838;DHT22;5978;51.020;6.764;2023-02-13T01:19:14;8.90;99.90
11838;DHT22;5978;51.020;6.764;2023-02-13T01:21:42;8.90;99.90
11838;DHT22;5978;51.020;6.764;2023-02-13T01:24:07;8.90;99.90
11838;DHT22;5978;51.020;6.764;2023-02-13T01:26:33;8.90;99.90
11838;DHT22;5978;51.020;6.764;2023-02-13T01:28:58;8.90;99.90
11838;DHT22;5978;51.020;6.764;2023-02-13T01:31:24;8.90;99.90
11838;DHT22;5978;51.020;6.764;2023-02-13T01:33:50;8.90;99.90
11838;DHT22;5978;51.020;6.764;2023-02-13T01:36:16;8.90;99.90
11838;DHT22;5978;51.020;6.764;2023-02-13T01:38:42;8.80;99.90
11838;DHT22;5978;51.020;6.764;2023-02-13T01:41:08;8.80;99.90
11838;DHT22;5978;51.020;6.764;2023-02-13T01:43:53;8.80;99.90
11838;DHT22;5978;51.020;6.764;2023-02-13T01:46:37;8.80;99.90
11838;DHT22;5978;51.020;6.764;2023-02-13T01:49:17;8.90;99.90
11838;DHT22;5978;51.020;6.764;2023-02-13T01:51:46;8.80;99.90
11838;DHT22;5978;51.020;6.764;2023-02-13T01:54:17;8.90;99.90
11838;DHT22;5978;51.020;6.764;2023-02-13T01:56:52;8.80;99.90
11838;DHT22;5978;51.020;6.764;2023-02-13T01:59:30;8.80;99.90
11838;DHT22;5978;51.020;6.764;2023-02-13T02:01:58;8.80;99.90
11838;DHT22;5978;51.020;6.764;2023-02-13T02:04:35;8.80;99.90
11838;DHT22;5978;51.020;6.764;2023-02-13T02:07:07;8.80;99.90
11838;DHT22;5978;51.020;6.764;2023-02-13T02:09:37;8.80;99.90
11838;DHT22;5978;51.020;6.764;2023-02-13T02:12:12;8.70;99.90
11838;DHT22;5978;51.020;6.764;2023-02-13T02:14:40;8.70;99.90
11838;DHT22;5978;51.020;6.764;2023-02-13T02:17:06;8.80;99.90
11838;DHT22;5978;51.020;6.764;2023-02-13T02:19:44;8.70;99.90
11838;DHT22;5978;51.020;6.764;2023-02-13T02:34:10;8.70;99.90
11838;DHT22;5978;51.020;6.764;2023-02-13T02:45:31;8.70;99.90
11838;DHT22;5978;51.020;6.764;2023-02-13T02:48:05;8.70;99.90
11838;DHT22;5978;51.020;6.764;2023-02-13T02:51:27;8.70;99.90
11838;DHT22;5978;51.020;6.764;2023-02-13T02:54:21;8.70;99.90
11838;DHT22;5978;51.020;6.764;2023-02-13T02:57:12;8.70;99.90
11838;DHT22;5978;51.020;6.764;2023-02-13T02:59:40;8.70;99.90
11838;DHT22;5978;51.020;6.764;2023-02-13T03:02:25;8.70;99.90
11838;DHT22;5978;51.020;6.764;2023-02-13T03:05:29;8.80;99.90
11838;DHT22;5978;51.020;6.764;2023-02-13T03:08:27;8.80;99.90
11838;DHT22;5978;51.020;6.764;2023-02-13T03:11:13;8.70;99.90
11838;DHT22;5978;51.020;6.764;2023-02-13T03:13:59;8.70;99.90
11838;DHT22;5978;51.020;6.764;2023-02-13T03:16:27;8.60;99.90
11838;DHT22;5978;51.020;6.764;2023-02-13T03:22:27;8.60;99.90
11838;DHT22;5978;51.020;6.764;2023-02-13T03:25:20;8.50;99.90
11838;DHT22;5978;51.020;6.764;2023-02-13T03:28:21;8.50;99.90
11838;DHT22;5978;51.020;6.764;2023-02-13T03:31:20;8.40;99.90
11838;DHT22;5978;51.020;6.764;2023-02-13T03:33:56;8.40;99.90
11838;DHT22;5978;51.020;6.764;2023-02-13T03:36:44;8.40;99.90
11838;DHT22;5978;51.020;6.764;2023-02-13T03:42:13;8.30;99.90
11838;DHT22;5978;51.020;6.764;2023-02-13T03:44:57;8.30;99.90
11838;DHT22;5978;51.020;6.764;2023-02-13T03:47:42;8.30;99.90
11838;DHT22;5978;51.020;6.764;2023-02-13T03:50:09;8.30;99.90
11838;DHT22;5978;51.020;6.764;2023-02-13T03:53:15;8.20;99.90
11838;DHT22;5978;51.020;6.764;2023-02-13T03:55:37;8.20;99.90
11838;DHT22;5978;51.020;6.764;2023-02-13T03:58:27;8.20;99.90
11838;DHT22;5978;51.020;6.764;2023-02-13T04:01:16;8.10;99.90
11838;DHT22;5978;51.020;6.764;2023-02-13T04:06:38;8.10;99.90
11838;DHT22;5978;51.020;6.764;2023-02-13T04:09:06;8.10;99.90
11838;DHT22;5978;51.020;6.764;2023-02-13T04:14:36;8.10;99.90
11838;DHT22;5978;51.020;6.764;2023-02-13T04:17:13;8.00;99.90
11838;DHT22;5978;51.020;6.764;2023-02-13T04:19:40;8.00;99.90
11838;DHT22;5978;51.020;6.764;2023-02-13T04:22:06;8.00;99.90
11838;DHT22;5978;51.020;6.764;2023-02-13T04:24:31;8.00;99.90
11838;DHT22;5978;51.020;6.764;2023-02-13T04:26:57;8.00;99.90
11838;DHT22;5978;51.020;6.764;2023-02-13T04:29:24;8.00;99.90
11838;DHT22;5978;51.020;6.764;2023-02-13T04:31:50;8.00;99.90
11838;DHT22;5978;51.020;6.764;2023-02-13T04:34:16;8.00;99.90
11838;DHT22;5978;51.020;6.764;2023-02-13T04:36:42;8.00;99.90
11838;DHT22;5978;51.020;6.764;2023-02-13T04:39:08;8.00;99.90
11838;DHT22;5978;51.020;6.764;2023-02-13T04:41:33;7.90;99.90
11838;DHT22;5978;51.020;6.764;2023-02-13T04:43:59;8.00;99.90
11838;DHT22;5978;51.020;6.764;2023-02-13T04:46:24;7.90;99.90
11838;DHT22;5978;51.020;6.764;2023-02-13T04:48:50;7.90;99.90
11838;DHT22;5978;51.020;6.764;2023-02-13T04:51:15;7.90;99.90
11838;DHT22;5978;51.020;6.764;2023-02-13T04:53:41;7.80;99.90
11838;DHT22;5978;51.020;6.764;2023-02-13T04:56:07;7.90;99.90
11838;DHT22;5978;51.020;6.764;2023-02-13T04:58:32;7.80;99.90
11838;DHT22;5978;51.020;6.764;2023-02-13T05:00:58;7.80;99.90
11838;DHT22;5978;51.020;6.764;2023-02-13T05:03:23;7.80;99.90
11838;DHT22;5978;51.020;6.764;2023-02-13T05:05:49;7.70;99.90
11838;DHT22;5978;51.020;6.764;2023-02-13T05:08:15;7.70;99.90
11838;DHT22;5978;51.020;6.764;2023-02-13T05:10:40;7.70;99.90
11838;DHT22;5978;51.020;6.764;2023-02-13T05:13:06;7.70;99.90
11838;DHT22;5978;51.020;6.764;2023-02-13T05:15:31;7.60;99.90
11838;DHT22;5978;51.020;6.764;2023-02-13T05:17:57;7.50;99.90
11838;DHT22;5978;51.020;6.764;2023-02-13T05:20:23;7.40;99.90
11838;DHT22;5978;51.020;6.764;2023-02-13T05:22:50;7.40;99.90
11838;DHT22;5978;51.020;6.764;2023-02-13T05:25:36;7.30;99.90
11838;DHT22;5978;51.020;6.764;2023-02-13T05:28:03;7.30;99.90
11838;DHT22;5978;51.020;6.764;2023-02-13T05:30:28;7.20;99.90
11838;DHT22;5978;51.020;6.764;2023-02-13T05:32:54;7.20;99.90
11838;DHT22;5978;51.020;6.764;2023-02-13T05:35:20;7.10;99.90
11838;DHT22;5978;51.020;6.764;2023-02-13T05:37:46;7.10;99.90
11838;DHT22;5978;51.020;6.764;2023-02-13T05:40:13;7.10;99.90
11838;DHT22;5978;51.020;6.764;2023-02-13T05:42:40;7.10;99.90
11838;DHT22;5978;51.020;6.764;2023-02-13T05:45:06;7.10;99.90
11838;DHT22;5978;51.020;6.764;2023-02-13T05:47:32;7.00;99.90
11838;DHT22;5978;51.020;6.764;2023-02-13T05:49:57;6.90;99.90
11838;DHT22;5978;51.020;6.764;2023-02-13T05:52:23;6.90;99.90
11838;DHT22;5978;51.020;6.764;2023-02-13T05:54:49;6.80;99.90
11838;DHT22;5978;51.020;6.764;2023-02-13T05:57:14;6.80;99.90
11838;DHT22;5978;51.020;6.764;2023-02-13T05:59:40;6.80;99.90
11838;DHT22;5978;51.020;6.764;2023-02-13T06:02:05;6.70;99.90
11838;DHT22;5978;51.020;6.764;2023-02-13T06:04:31;6.70;99.90
11838;DHT22;5978;51.020;6.764;2023-02-13T06:06:56;6.60;99.90
11838;DHT22;5978;51.020;6.764;2023-02-13T06:09:22;6.60;99.90
11838;DHT22;5978;51.020;6.764;2023-02-13T06:11:48;6.60;99.90
11838;DHT22;5978;51.020;6.764;2023-02-13T06:14:13;6.50;99.90
11838;DHT22;5978;51.020;6.764;2023-02-13T06:16:39;6.50;99.90
11838;DHT22;5978;51.020;6.764;2023-02-13T06:19:05;6.50;99.90
11838;DHT22;5978;51.020;6.764;2023-02-13T06:21:31;6.50;99.90
11838;DHT22;5978;51.020;6.764;2023-02-13T06:24:03;6.50;99.90
11838;DHT22;5978;51.020;6.764;2023-02-13T06:26:28;6.50;99.90
11838;DHT22;5978;51.020;6.764;2023-02-13T06:28:54;6.50;99.90
11838;DHT22;5978;51.020;6.764;2023-02-13T06:31:20;6.40;99.90
11838;DHT22;5978;51.020;6.764;2023-02-13T06:33:45;6.40;99.90
11838;DHT22;5978;51.020;6.764;2023-02-13T06:36:11;6.30;99.90
11838;DHT22;5978;51.020;6.764;2023-02-13T06:38:36;6.30;99.90
11838;DHT22;5978;51.020;6.764;2023-02-13T06:41:02;6.30;99.90
11838;DHT22;5978;51.020;6.764;2023-02-13T06:43:28;6.30;99.90
11838;DHT22;5978;51.020;6.764;2023-02-13T06:45:54;6.20;99.90
11838;DHT22;5978;51.020;6.764;2023-02-13T06:48:20;6.20;99.90
11838;DHT22;5978;51.020;6.764;2023-02-13T06:50:45;6.20;99.90
11838;DHT22;5978;51.020;6.764;2023-02-13T06:53:11;6.20;99.90
11838;DHT22;5978;51.020;6.764;2023-02-13T06:55:36;6.10;99.90
11838;DHT22;5978;51.020;6.764;2023-02-13T06:58:04;6.10;99.90
11838;DHT22;5978;51.020;6.764;2023-02-13T07:00:30;6.10;99.90
11838;DHT22;5978;51.020;6.764;2023-02-13T07:03:01;6.10;99.90
11838;DHT22;5978;51.020;6.764;2023-02-13T07:05:27;6.10;99.90
11838;DHT22;5978;51.020;6.764;2023-02-13T07:07:53;6.10;99.90
11838;DHT22;5978;51.020;6.764;2023-02-13T07:10:19;6.00;99.90
11838;DHT22;5978;51.020;6.764;2023-02-13T07:12:44;6.00;99.90
11838;DHT22;5978;51.020;6.764;2023-02-13T07:15:10;6.00;99.90
11838;DHT22;5978;51.020;6.764;2023-02-13T07:17:36;6.00;99.90
11838;DHT22;5978;51.020;6.764;2023-02-13T07:20:02;6.10;99.90
11838;DHT22;5978;51.020;6.764;2023-02-13T07:22:30;6.00;99.90
11838;DHT22;5978;51.020;6.764;2023-02-13T07:24:57;6.00;99.90
11838;DHT22;5978;51.020;6.764;2023-02-13T07:27:23;6.00;99.90
11838;DHT22;5978;51.020;6.764;2023-02-13T07:29:48;6.00;99.90
11838;DHT22;5978;51.020;6.764;2023-02-13T07:32:14;6.10;99.90
11838;DHT22;5978;51.020;6.764;2023-02-13T07:34:40;6.10;99.90
11838;DHT22;5978;51.020;6.764;2023-02-13T07:37:05;6.20;99.90
11838;DHT22;5978;51.020;6.764;2023-02-13T07:39:31;6.20;99.90
11838;DHT22;5978;51.020;6.764;2023-02-13T07:41:56;6.20;99.90
11838;DHT22;5978;51.020;6.764;2023-02-13T07:44:22;6.20;99.90
11838;DHT22;5978;51.020;6.764;2023-02-13T07:46:47;6.30;99.90
11838;DHT22;5978;51.020;6.764;2023-02-13T07:49:13;6.30;99.90
11838;DHT22;5978;51.020;6.764;2023-02-13T07:51:38;6.40;99.90
11838;DHT22;5978;51.020;6.764;2023-02-13T07:54:04;6.40;99.90
11838;DHT22;5978;51.020;6.764;2023-02-13T07:56:30;6.50;99.90
11838;DHT22;5978;51.020;6.764;2023-02-13T07:58:55;6.60;99.90
11838;DHT22;5978;51.020;6.764;2023-02-13T08:01:21;6.70;99.90
11838;DHT22;5978;51.020;6.764;2023-02-13T08:03:47;6.80;99.90
11838;DHT22;5978;51.020;6.764;2023-02-13T08:06:15;6.90;99.90
11838;DHT22;5978;51.020;6.764;2023-02-13T08:08:41;7.00;99.90
11838;DHT22;5978;51.020;6.764;2023-02-13T08:11:20;7.10;99.90
11838;DHT22;5978;51.020;6.764;2023-02-13T08:14:05;7.30;99.90
11838;DHT22;5978;51.020;6.764;2023-02-13T08:16:31;7.40;99.90
11838;DHT22;5978;51.020;6.764;2023-02-13T08:18:56;7.50;99.90
11838;DHT22;5978;51.020;6.764;2023-02-13T08:21:22;7.50;99.90
11838;DHT22;5978;51.020;6.764;2023-02-13T08:23:48;7.70;99.90
11838;DHT22;5978;51.020;6.764;2023-02-13T08:26:16;7.80;99.90
11838;DHT22;5978;51.020;6.764;2023-02-13T08:28:41;7.90;99.90
11838;DHT22;5978;51.020;6.764;2023-02-13T08:31:11;8.00;99.90
11838;DHT22;5978;51.020;6.764;2023-02-13T08:33:37;8.10;99.90
11838;DHT22;5978;51.020;6.764;2023-02-13T08:36:03;8.20;99.90
11838;DHT22;5978;51.020;6.764;2023-02-13T08:38:29;8.20;99.90
11838;DHT22;5978;51.020;6.764;2023-02-13T08:40:57;8.40;99.90
11838;DHT22;5978;51.020;6.764;2023-02-13T08:43:23;8.50;99.90
11838;DHT22;5978;51.020;6.764;2023-02-13T08:45:49;8.60;99.90
11838;DHT22;5978;51.020;6.764;2023-02-13T08:48:14;8.70;99.90
11838;DHT22;5978;51.020;6.764;2023-02-13T08:50:40;8.70;99.90
11838;DHT22;5978;51.020;6.764;2023-02-13T08:53:07;8.90;99.90
11838;DHT22;5978;51.020;6.764;2023-02-13T08:55:32;8.90;99.90
11838;DHT22;5978;51.020;6.764;2023-02-13T08:58:02;9.10;99.90
11838;DHT22;5978;51.020;6.764;2023-02-13T09:00:28;9.30;99.90
11838;DHT22;5978;51.020;6.764;2023-02-13T09:02:54;9.30;99.90
11838;DHT22;5978;51.020;6.764;2023-02-13T09:05:20;9.40;99.90
11838;DHT22;5978;51.020;6.764;2023-02-13T09:07:45;9.50;99.90
11838;DHT22;5978;51.020;6.764;2023-02-13T09:10:11;9.40;99.90
11838;DHT22;5978;51.020;6.764;2023-02-13T09:12:37;9.40;99.90
11838;DHT22;5978;51.020;6.764;2023-02-13T09:15:03;9.60;99.90
11838;DHT22;5978;51.020;6.764;2023-02-13T09:17:29;9.70;99.90
11838;DHT22;5978;51.020;6.764;2023-02-13T09:19:55;9.80;99.90
11838;DHT22;5978;51.020;6.764;2023-02-13T09:22:20;9.90;99.90
11838;DHT22;5978;51.020;6.764;2023-02-13T09:24:46;9.90;99.90
11838;DHT22;5978;51.020;6.764;2023-02-13T09:27:11;9.80;99.90
11838;DHT22;5978;51.020;6.764;2023-02-13T09:29:37;9.90;99.90
11838;DHT22;5978;51.020;6.764;2023-02-13T09:32:04;10.00;99.90
11838;DHT22;5978;51.020;6.764;2023-02-13T09:34:30;10.20;99.90
11838;DHT22;5978;51.020;6.764;2023-02-13T09:36:55;10.50;99.90
11838;DHT22;5978;51.020;6.764;2023-02-13T09:39:21;10.50;99.90
11838;DHT22;5978;51.020;6.764;2023-02-13T09:41:48;10.50;99.90
11838;DHT22;5978;51.020;6.764;2023-02-13T09:44:28;10.60;99.90
11838;DHT22;5978;51.020;6.764;2023-02-13T09:47:21;10.70;99.90
11838;DHT22;5978;51.020;6.764;2023-02-13T09:49:59;10.70;99.90
11838;DHT22;5978;51.020;6.764;2023-02-13T09:52:30;10.70;99.90
11838;DHT22;5978;51.020;6.764;2023-02-13T09:54:56;10.70;99.90
11838;DHT22;5978;51.020;6.764;2023-02-13T09:57:27;10.60;99.90
11838;DHT22;5978;51.020;6.764;2023-02-13T10:02:57;10.20;99.90
11838;DHT22;5978;51.020;6.764;2023-02-13T10:05:38;10.20;99.90
11838;DHT22;5978;51.020;6.764;2023-02-13T10:13:30;10.20;99.90
11838;DHT22;5978;51.020;6.764;2023-02-13T10:16:09;10.10;99.90
11838;DHT22;5978;51.020;6.764;2023-02-13T10:18:54;10.00;99.90
11838;DHT22;5978;51.020;6.764;2023-02-13T10:21:26;10.10;99.90
11838;DHT22;5978;51.020;6.764;2023-02-13T10:24:09;10.30;99.90
11838;DHT22;5978;51.020;6.764;2023-02-13T10:26:40;10.20;99.90
11838;DHT22;5978;51.020;6.764;2023-02-13T10:29:35;10.20;99.90
11838;DHT22;5978;51.020;6.764;2023-02-13T10:32:26;10.40;99.90
11838;DHT22;5978;51.020;6.764;2023-02-13T10:34:54;10.60;99.90
11838;DHT22;5978;51.020;6.764;2023-02-13T10:37:22;10.70;99.90
11838;DHT22;5978;51.020;6.764;2023-02-13T10:39:51;10.90;99.90
11838;DHT22;5978;51.020;6.764;2023-02-13T10:45:09;11.20;99.90
11838;DHT22;5978;51.020;6.764;2023-02-13T10:48:02;11.30;99.90
11838;DHT22;5978;51.020;6.764;2023-02-13T10:50:57;11.40;99.90
11838;DHT22;5978;51.020;6.764;2023-02-13T10:53:42;11.70;99.90
11838;DHT22;5978;51.020;6.764;2023-02-13T11:01:55;12.60;99.90
11838;DHT22;5978;51.020;6.764;2023-02-13T11:04:21;13.10;99.90
11838;DHT22;5978;51.020;6.764;2023-02-13T11:06:54;13.70;99.90
11838;DHT22;5978;51.020;6.764;2023-02-13T11:09:20;14.20;99.90
11838;DHT22;5978;51.020;6.764;2023-02-13T11:11:46;15.10;99.90
11838;DHT22;5978;51.020;6.764;2023-02-13T11:16:41;15.80;99.90
11838;DHT22;5978;51.020;6.764;2023-02-13T11:19:16;16.00;99.90
11838;DHT22;5978;51.020;6.764;2023-02-13T11:21:42;16.40;99.90
11838;DHT22;5978;51.020;6.764;2023-02-13T11:24:18;17.50;99.90
11838;DHT22;5978;51.020;6.764;2023-02-13T11:26:50;17.60;99.90
11838;DHT22;5978;51.020;6.764;2023-02-13T11:29:36;18.10;99.90
11838;DHT22;5978;51.020;6.764;2023-02-13T11:32:25;18.50;95.90
11838;DHT22;5978;51.020;6.764;2023-02-13T11:34:51;18.80;95.80
11838;DHT22;5978;51.020;6.764;2023-02-13T11:37:24;19.10;92.20
11838;DHT22;5978;51.020;6.764;2023-02-13T11:39:53;19.20;90.70
11838;DHT22;5978;51.020;6.764;2023-02-13T11:44:49;20.00;89.90
11838;DHT22;5978;51.020;6.764;2023-02-13T11:47:16;20.40;83.10
11838;DHT22;5978;51.020;6.764;2023-02-13T11:49:53;19.90;78.80
11838;DHT22;5978;51.020;6.764;2023-02-13T11:52:27;20.50;78.00
11838;DHT22;5978;51.020;6.764;2023-02-13T11:54:56;21.20;76.80
11838;DHT22;5978;51.020;6.764;2023-02-13T11:57:30;21.70;73.70
11838;DHT22;5978;51.020;6.764;2023-02-13T11:59:57;21.90;72.80
11838;DHT22;5978;51.020;6.764;2023-02-13T12:02:24;22.70;70.40
11838;DHT22;5978;51.020;6.764;2023-02-13T12:05:12;22.50;68.70
11838;DHT22;5978;51.020;6.764;2023-02-13T12:07:37;22.50;66.90
11838;DHT22;5978;51.020;6.764;2023-02-13T12:15:29;22.70;63.00
11838;DHT22;5978;51.020;6.764;2023-02-13T12:20:26;23.80;62.10
11838;DHT22;5978;51.020;6.764;2023-02-13T12:26:09;23.00;60.10
11838;DHT22;5978;51.020;6.764;2023-02-13T12:32:25;23.50;60.20
11838;DHT22;5978;51.020;6.764;2023-02-13T12:39:36;24.80;59.10
11838;DHT22;5978;51.020;6.764;2023-02-13T12:42:27;24.60;56.90
11838;DHT22;5978;51.020;6.764;2023-02-13T12:45:23;25.00;57.70
11838;DHT22;5978;51.020;6.764;2023-02-13T13:01:41;26.20;53.40
11838;DHT22;5978;51.020;6.764;2023-02-13T13:04:20;26.00;52.80
11838;DHT22;5978;51.020;6.764;2023-02-13T13:12:47;26.80;52.60
11838;DHT22;5978;51.020;6.764;2023-02-13T13:15:31;27.10;52.60
11838;DHT22;5978;51.020;6.764;2023-02-13T13:18:20;28.10;51.40
11838;DHT22;5978;51.020;6.764;2023-02-13T13:20:53;28.10;50.70
11838;DHT22;5978;51.020;6.764;2023-02-13T13:23:30;28.80;50.10
11838;DHT22;5978;51.020;6.764;2023-02-13T13:28:31;29.00;48.40
11838;DHT22;5978;51.020;6.764;2023-02-13T13:30:58;28.00;48.70
11838;DHT22;5978;51.020;6.764;2023-02-13T13:33:25;28.00;49.00
11838;DHT22;5978;51.020;6.764;2023-02-13T13:36:02;28.50;49.20
11838;DHT22;5978;51.020;6.764;2023-02-13T13:49:34;27.90;48.60
11838;DHT22;5978;51.020;6.764;2023-02-13T13:52:32;27.70;48.40
11838;DHT22;5978;51.020;6.764;2023-02-13T13:55:00;27.90;48.40
11838;DHT22;5978;51.020;6.764;2023-02-13T14:00:29;29.30;47.50
11838;DHT22;5978;51.020;6.764;2023-02-13T14:05:29;29.30;45.90
11838;DHT22;5978;51.020;6.764;2023-02-13T14:08:03;29.50;46.00
11838;DHT22;5978;51.020;6.764;2023-02-13T14:10:58;30.30;46.10
11838;DHT22;5978;51.020;6.764;2023-02-13T14:13:33;29.50;44.90
11838;DHT22;5978;51.020;6.764;2023-02-13T14:15:59;29.70;45.30
11838;DHT22;5978;51.020;6.764;2023-02-13T14:18:25;29.40;45.60
11838;DHT22;5978;51.020;6.764;2023-02-13T14:21:00;29.60;45.20
11838;DHT22;5978;51.020;6.764;2023-02-13T14:33:56;29.50;45.10
11838;DHT22;5978;51.020;6.764;2023-02-13T14:36:29;29.60;45.30
11838;DHT22;5978;51.020;6.764;2023-02-13T14:39:44;29.90;44.60
11838;DHT22;5978;51.020;6.764;2023-02-13T14:44:43;29.20;44.80
11838;DHT22;5978;51.020;6.764;2023-02-13T14:47:30;29.10;45.10
11838;DHT22;5978;51.020;6.764;2023-02-13T14:49:58;29.60;44.60
11838;DHT22;5978;51.020;6.764;2023-02-13T14:52:29;28.60;44.10
11838;DHT22;5978;51.020;6.764;2023-02-13T14:55:06;28.50;45.00
11838;DHT22;5978;51.020;6.764;2023-02-13T14:57:51;28.30;45.20
11838;DHT22;5978;51.020;6.764;2023-02-13T15:00:26;28.10;45.00
11838;DHT22;5978;51.020;6.764;2023-02-13T15:03:01;28.30;44.80
11838;DHT22;5978;51.020;6.764;2023-02-13T15:05:33;28.90;45.10
11838;DHT22;5978;51.020;6.764;2023-02-13T15:08:20;29.00;44.90
11838;DHT22;5978;51.020;6.764;2023-02-13T15:10:49;28.80;44.70
11838;DHT22;5978;51.020;6.764;2023-02-13T15:13:20;28.40;44.60
11838;DHT22;5978;51.020;6.764;2023-02-13T15:15:55;28.30;44.60
11838;DHT22;5978;51.020;6.764;2023-02-13T15:18:30;27.60;44.80
11838;DHT22;5978;51.020;6.764;2023-02-13T15:20:59;27.40;45.40
11838;DHT22;5978;51.020;6.764;2023-02-13T15:23:28;27.60;46.10
11838;DHT22;5978;51.020;6.764;2023-02-13T15:26:03;27.40;45.80
11838;DHT22;5978;51.020;6.764;2023-02-13T15:28:30;27.40;46.30
11838;DHT22;5978;51.020;6.764;2023-02-13T15:33:31;27.70;46.10
11838;DHT22;5978;51.020;6.764;2023-02-13T15:36:00;27.40;45.40
11838;DHT22;5978;51.020;6.764;2023-02-13T15:38:27;27.00;45.70
11838;DHT22;5978;51.020;6.764;2023-02-13T15:41:38;26.90;46.00
11838;DHT22;5978;51.020;6.764;2023-02-13T15:43:47;26.50;46.20
11838;DHT22;5978;51.020;6.764;2023-02-13T15:46:19;26.50;46.60
11838;DHT22;5978;51.020;6.764;2023-02-13T15:48:46;26.10;46.60
11838;DHT22;5978;51.020;6.764;2023-02-13T15:51:20;25.80;46.90
11838;DHT22;5978;51.020;6.764;2023-02-13T15:53:54;25.50;47.30
11838;DHT22;5978;51.020;6.764;2023-02-13T15:56:20;24.90;47.80
11838;DHT22;5978;51.020;6.764;2023-02-13T15:58:46;23.90;48.20
11838;DHT22;5978;51.020;6.764;2023-02-13T16:01:13;22.70;48.80
11838;DHT22;5978;51.020;6.764;2023-02-13T16:03:40;21.00;49.90
11838;DHT22;5978;51.020;6.764;2023-02-13T16:06:13;19.90;51.40
11838;DHT22;5978;51.020;6.764;2023-02-13T16:08:42;19.00;53.40
11838;DHT22;5978;51.020;6.764;2023-02-13T16:14:04;17.80;55.50
11838;DHT22;5978;51.020;6.764;2023-02-13T16:16:40;17.30;56.60
11838;DHT22;5978;51.020;6.764;2023-02-13T16:19:26;16.90;57.40
11838;DHT22;5978;51.020;6.764;2023-02-13T16:21:54;16.50;58.30
11838;DHT22;5978;51.020;6.764;2023-02-13T16:24:21;16.30;59.20
11838;DHT22;5978;51.020;6.764;2023-02-13T16:26:48;16.20;60.10
11838;DHT22;5978;51.020;6.764;2023-02-13T16:29:22;16.10;61.30
11838;DHT22;5978;51.020;6.764;2023-02-13T16:31:49;16.00;62.80
11838;DHT22;5978;51.020;6.764;2023-02-13T16:34:25;15.90;64.30
11838;DHT22;5978;51.020;6.764;2023-02-13T16:36:51;15.70;65.30
11838;DHT22;5978;51.020;6.764;2023-02-13T16:39:20;15.60;67.30
11838;DHT22;5978;51.020;6.764;2023-02-13T16:41:46;15.50;69.00
11838;DHT22;5978;51.020;6.764;2023-02-13T16:44:25;15.30;71.40
11838;DHT22;5978;51.020;6.764;2023-02-13T16:46:56;15.20;74.50
11838;DHT22;5978;51.020;6.764;2023-02-13T16:49:27;14.90;76.60
11838;DHT22;5978;51.020;6.764;2023-02-13T16:51:59;14.80;81.10
11838;DHT22;5978;51.020;6.764;2023-02-13T16:59:51;14.30;94.00
11838;DHT22;5978;51.020;6.764;2023-02-13T17:02:35;14.30;97.90
11838;DHT22;5978;51.020;6.764;2023-02-13T17:07:39;14.20;99.90
11838;DHT22;5978;51.020;6.764;2023-02-13T17:10:24;14.20;99.90
11838;DHT22;5978;51.020;6.764;2023-02-13T17:12:57;14.10;99.90
11838;DHT22;5978;51.020;6.764;2023-02-13T17:15:25;14.00;99.90
11838;DHT22;5978;51.020;6.764;2023-02-13T17:17:51;13.90;99.90
11838;DHT22;5978;51.020;6.764;2023-02-13T17:20:29;13.70;99.90
11838;DHT22;5978;51.020;6.764;2023-02-13T17:22:57;13.60;99.90
11838;DHT22;5978;51.020;6.764;2023-02-13T17:25:29;13.50;99.90
11838;DHT22;5978;51.020;6.764;2023-02-13T17:27:57;13.40;99.90
11838;DHT22;5978;51.020;6.764;2023-02-13T17:30:32;13.20;99.90
11838;DHT22;5978;51.020;6.764;2023-02-13T17:33:11;13.20;99.90
11838;DHT22;5978;51.020;6.764;2023-02-13T17:35:38;13.10;99.90
11838;DHT22;5978;51.020;6.764;2023-02-13T17:38:04;13.00;99.90
11838;DHT22;5978;51.020;6.764;2023-02-13T17:40:30;12.90;99.90
11838;DHT22;5978;51.020;6.764;2023-02-13T17:42:57;12.90;99.90
11838;DHT22;5978;51.020;6.764;2023-02-13T17:45:25;13.00;99.90
11838;DHT22;5978;51.020;6.764;2023-02-13T17:47:51;12.90;99.90
11838;DHT22;5978;51.020;6.764;2023-02-13T17:50:17;12.90;99.90
11838;DHT22;5978;51.020;6.764;2023-02-13T17:52:44;12.80;99.90
11838;DHT22;5978;51.020;6.764;2023-02-13T17:55:15;12.80;99.90
11838;DHT22;5978;51.020;6.764;2023-02-13T17:57:41;12.70;99.90
11838;DHT22;5978;51.020;6.764;2023-02-13T18:00:07;12.60;99.90
11838;DHT22;5978;51.020;6.764;2023-02-13T18:02:33;12.50;99.90
11838;DHT22;5978;51.020;6.764;2023-02-13T18:04:59;12.40;99.90
11838;DHT22;5978;51.020;6.764;2023-02-13T18:07:25;12.30;99.90
11838;DHT22;5978;51.020;6.764;2023-02-13T18:09:50;12.30;99.90
11838;DHT22;5978;51.020;6.764;2023-02-13T18:12:22;12.20;99.90
11838;DHT22;5978;51.020;6.764;2023-02-13T18:14:49;12.20;99.90
11838;DHT22;5978;51.020;6.764;2023-02-13T18:17:15;12.10;99.90
11838;DHT22;5978;51.020;6.764;2023-02-13T18:19:41;12.00;99.90
11838;DHT22;5978;51.020;6.764;2023-02-13T18:22:08;11.90;99.90
11838;DHT22;5978;51.020;6.764;2023-02-13T18:24:37;11.90;99.90
11838;DHT22;5978;51.020;6.764;2023-02-13T18:27:03;11.90;99.90
11838;DHT22;5978;51.020;6.764;2023-02-13T18:29:29;11.80;99.90
11838;DHT22;5978;51.020;6.764;2023-02-13T18:31:55;11.80;99.90
11838;DHT22;5978;51.020;6.764;2023-02-13T18:34:22;11.60;99.90
11838;DHT22;5978;51.020;6.764;2023-02-13T18:36:48;11.50;99.90